2 км

Карта отелей и гостиниц, располагающихся рядом с аэропортом 2 км :

2 км Томская область 60° 44' 32.1" N, 77° 32' 0.8412" E
2 км Томская область 60° 44' 32.1" N, 77° 32' 0.8412" E
Код аэродрома ИКАО
HB6B
Код аэродрома RU
ХБ6Б
Координаты
N60.74225° E077.53357°
Превышение над уровнем моря
44
Основная полоса
Курс магнитный
Длина основной ВПП
30
Ширина основной ВПП
30
Покрытие основной ВПП
Твёрдое
Освещение ВПП
Нет
Тип: 
Вертодром
Класс аэродрома: 
Принадлежность: 
ГА
Статус: 
Действующий
Сайт: 
E-mail аэродрома: 
Страна: 
Россия
Регион: 
Томская область
Город: 
Дополнительная информация: 
Маркирована. Оборудована ветроуказателем.

Найти трансфер

С помощью этой формы Вы можете найти трансфер из аэропорта 2 км в город, аэропорт или вокзал:

Карта места

Javascript is required to view this map.

Погода в аэропортах:

Авиационная погода в Иркутске

Регион: 
Погода METAR: 
UIII 061030Z 06002MPS 4300 FU NSC M04/M08 Q1018 R30/820550 NOSIG RMK QFE719/0959
Время наблюдения
2021-12-06T10:30:00Z
Температура C
-4.0
Точка росы
-8.0
Направление ветра
60
Скорость ветра (узлы)
4
Метео видимость
2.67
Явления погоды
FU
Условия полета
IFR
Аэропорт подробнее: 

Авиационная погода в Челябинске

Регион: 
Погода METAR: 
USCC 061030Z 29007MPS 9999 DRSN SCT030CB M04/M10 Q1016 R27/450245 TEMPO 30012MPS RMK QFE742
Время наблюдения
2021-12-06T10:30:00Z
Температура C
-4.0
Точка росы
-10.0
Направление ветра
290
Скорость ветра (узлы)
14
Метео видимость
6.21
Явления погоды
DRSN
Условия полета
VFR
Аэропорт подробнее: 

Авиационная погода в Емельяново

Регион: 
Погода METAR: 
UNKL 061030Z 21003MPS 9999 -SHSN BKN031CB 03/M02 Q1015 R29/810250 NOSIG RMK QFE735
Время наблюдения
2021-12-06T10:30:00Z
Температура C
3.0
Точка росы
-2.0
Направление ветра
210
Скорость ветра (узлы)
6
Метео видимость
6.21
Явления погоды
-SHSN
Условия полета
VFR
Аэропорт подробнее: 

Авиационная погода в Москва - Шереметьево

Погода METAR: 
UUEE 061030Z 08005MPS 6000 2500SW BR OVC005 M07/M08 Q1020 R06R/520340 R06C/520340 TEMPO 1000 -FZDZ BR
Время наблюдения
2021-12-06T10:30:00Z
Температура C
-7.0
Точка росы
-8.0
Направление ветра
80
Скорость ветра (узлы)
10
Метео видимость
3.73
Явления погоды
BR
Условия полета
IFR
Аэропорт подробнее: